createdAt,value
2023-04-12T00:01:07.683Z,2.10
2023-04-12T00:03:35.400Z,2.00
2023-04-12T00:06:03.982Z,2.28
2023-04-12T00:08:35.868Z,1.83
2023-04-12T00:11:04.060Z,2.17
2023-04-12T00:13:31.743Z,1.95
2023-04-12T00:16:00.241Z,2.50
2023-04-12T00:18:28.052Z,2.10
2023-04-12T00:20:58.575Z,2.05
2023-04-12T00:23:26.373Z,2.42
2023-04-12T00:25:54.232Z,1.95
2023-04-12T00:28:21.706Z,2.15
2023-04-12T00:30:49.224Z,2.60
2023-04-12T00:33:16.795Z,2.15
2023-04-12T00:35:46.532Z,2.45
2023-04-12T00:38:16.246Z,1.70
2023-04-12T00:40:44.370Z,2.10
2023-04-12T00:43:19.422Z,3.17
2023-04-12T00:45:50.527Z,1.85
2023-04-12T00:48:18.817Z,1.98
2023-04-12T00:50:47.394Z,2.30
2023-04-12T00:53:15.322Z,1.80
2023-04-12T00:55:46.801Z,1.60
2023-04-12T00:58:15.259Z,2.15
2023-04-12T01:00:46.283Z,2.65
2023-04-12T01:03:14.530Z,2.60
2023-04-12T01:05:46.385Z,2.50
2023-04-12T01:08:18.821Z,2.42
2023-04-12T01:11:18.517Z,1.77
2023-04-12T01:13:48.018Z,2.55
2023-04-12T01:16:18.784Z,2.63
2023-04-12T01:18:51.251Z,2.60
2023-04-12T01:21:51.167Z,2.05
2023-04-12T01:24:27.416Z,2.03
2023-04-12T01:26:58.343Z,2.35
2023-04-12T01:29:28.458Z,2.20
2023-04-12T01:31:59.741Z,2.22
2023-04-12T01:34:29.334Z,1.60
2023-04-12T01:36:58.124Z,3.58
2023-04-12T01:39:26.445Z,3.15
2023-04-12T01:41:54.120Z,1.40
2023-04-12T01:44:22.085Z,2.25
2023-04-12T01:46:50.234Z,2.20
2023-04-12T01:49:18.581Z,2.95
2023-04-12T01:51:52.577Z,2.15
2023-04-12T01:54:22.942Z,2.65
2023-04-12T01:56:54.451Z,2.90
2023-04-12T01:59:24.709Z,1.67
2023-04-12T02:01:52.470Z,3.15
2023-04-12T02:04:20.770Z,2.95
2023-04-12T02:06:48.418Z,3.30
2023-04-12T02:09:19.526Z,2.58
2023-04-12T02:11:48.649Z,2.15
2023-04-12T02:14:16.733Z,1.80
2023-04-12T02:16:45.331Z,2.10
2023-04-12T02:19:13.431Z,2.13
2023-04-12T02:21:47.387Z,1.50
2023-04-12T02:24:15.767Z,2.13
2023-04-12T02:26:43.258Z,1.80
2023-04-12T02:29:11.130Z,2.35
2023-04-12T02:31:40.056Z,1.55
2023-04-12T02:34:07.814Z,2.20
2023-04-12T02:36:38.339Z,2.83
2023-04-12T02:39:08.406Z,2.42
2023-04-12T02:41:35.875Z,2.65
2023-04-12T02:44:03.504Z,2.15
2023-04-12T02:46:31.214Z,2.25
2023-04-12T02:48:59.609Z,2.88
2023-04-12T02:51:28.734Z,2.60
2023-04-12T02:53:56.902Z,2.25
2023-04-12T02:56:25.346Z,1.73
2023-04-12T02:58:53.158Z,2.92
2023-04-12T03:01:20.759Z,2.80
2023-04-12T03:03:48.427Z,2.15
2023-04-12T03:06:15.981Z,1.75
2023-04-12T03:08:45.505Z,1.63
2023-04-12T03:11:13.035Z,2.05
2023-04-12T03:13:43.524Z,2.17
2023-04-12T03:16:24.670Z,2.42
2023-04-12T03:18:52.471Z,2.40
2023-04-12T03:21:20.004Z,1.40
2023-04-12T03:23:47.596Z,2.42
2023-04-12T03:26:15.216Z,1.95
2023-04-12T03:28:43.551Z,1.30
2023-04-12T03:31:11.398Z,2.47
2023-04-12T03:33:39.075Z,1.45
2023-04-12T03:36:09.931Z,1.60
2023-04-12T03:38:40.861Z,2.40
2023-04-12T03:41:11.460Z,2.95
2023-04-12T03:43:39.194Z,2.35
2023-04-12T03:46:07.180Z,1.92
2023-04-12T03:48:34.838Z,2.42
2023-04-12T03:51:09.316Z,2.63
2023-04-12T03:53:36.894Z,2.25
2023-04-12T03:56:04.809Z,2.40
2023-04-12T03:58:34.526Z,1.95
2023-04-12T04:01:06.842Z,1.80
2023-04-12T04:03:35.686Z,2.55
2023-04-12T04:06:03.488Z,1.83
2023-04-12T04:08:34.328Z,2.10
2023-04-12T04:11:01.902Z,2.20
2023-04-12T04:13:29.547Z,3.67
2023-04-12T04:16:01.304Z,2.33
2023-04-12T04:18:31.687Z,2.22
2023-04-12T04:20:59.744Z,1.85
2023-04-12T04:23:30.026Z,2.35
2023-04-12T04:25:58.137Z,2.08
2023-04-12T04:28:26.193Z,2.95
2023-04-12T04:31:00.147Z,1.70
2023-04-12T04:33:28.474Z,2.10
2023-04-12T04:35:57.978Z,2.63
2023-04-12T04:38:26.909Z,2.63
2023-04-12T04:40:57.174Z,3.05
2023-04-12T04:43:24.712Z,1.90
2023-04-12T04:45:58.230Z,1.83
2023-04-12T04:48:25.926Z,2.22
2023-04-12T04:50:53.988Z,2.55
2023-04-12T04:53:22.833Z,1.95
2023-04-12T04:55:50.419Z,2.80
2023-04-12T04:58:18.117Z,2.72
2023-04-12T05:00:45.744Z,2.35
2023-04-12T05:03:13.802Z,2.00
2023-04-12T05:05:42.013Z,2.03
2023-04-12T05:08:09.698Z,1.77
2023-04-12T05:10:37.349Z,2.00
2023-04-12T05:13:04.913Z,2.65
2023-04-12T05:15:32.681Z,2.95
2023-04-12T05:18:03.561Z,2.00
2023-04-12T05:20:32.646Z,2.53
2023-04-12T05:23:02.993Z,2.45
2023-04-12T05:25:30.677Z,2.70
2023-04-12T05:27:58.153Z,3.85
2023-04-12T05:30:26.011Z,4.10
2023-04-12T05:32:58.198Z,4.15
2023-04-12T05:35:25.911Z,3.97
2023-04-12T05:37:53.465Z,4.78
2023-04-12T05:40:21.147Z,4.28
2023-04-12T05:42:48.698Z,3.78
2023-04-12T05:45:16.290Z,3.13
2023-04-12T05:47:43.914Z,3.28
2023-04-12T05:50:11.759Z,4.28
2023-04-12T05:52:39.580Z,3.13
2023-04-12T05:55:07.197Z,3.45
2023-04-12T05:57:34.737Z,3.80
2023-04-12T06:00:02.248Z,2.92
2023-04-12T06:02:30.129Z,2.80
2023-04-12T06:04:57.967Z,1.98
2023-04-12T06:07:26.492Z,3.22
2023-04-12T06:09:53.987Z,2.10
2023-04-12T06:12:21.860Z,2.03
2023-04-12T06:14:49.649Z,1.88
2023-04-12T06:17:17.225Z,2.83
2023-04-12T06:19:44.826Z,3.30
2023-04-12T06:22:12.414Z,2.85
2023-04-12T06:24:40.226Z,1.90
2023-04-12T06:27:08.367Z,1.88
2023-04-12T06:29:35.963Z,2.67
2023-04-12T06:32:03.488Z,3.20
2023-04-12T06:34:34.532Z,1.88
2023-04-12T06:37:02.877Z,2.40
2023-04-12T06:39:33.242Z,2.15
2023-04-12T06:42:00.851Z,2.80
2023-04-12T06:44:28.671Z,2.95
2023-04-12T06:46:56.246Z,2.60
2023-04-12T06:49:23.756Z,2.47
2023-04-12T06:51:51.660Z,2.45
2023-04-12T06:54:19.290Z,2.30
2023-04-12T06:56:49.684Z,2.58
2023-04-12T06:59:17.221Z,3.25
2023-04-12T07:01:47.240Z,2.30
2023-04-12T07:04:14.881Z,2.75
2023-04-12T07:06:43.319Z,1.85
2023-04-12T07:09:11.086Z,2.05
2023-04-12T07:11:38.654Z,2.10
2023-04-12T07:14:06.259Z,2.08
2023-04-12T07:16:34.657Z,2.17
2023-04-12T07:19:02.243Z,1.80
2023-04-12T07:21:30.072Z,2.30
2023-04-12T07:23:57.649Z,1.83
2023-04-12T07:26:27.248Z,1.48
2023-04-12T07:28:55.695Z,2.05
2023-04-12T07:31:24.464Z,2.30
2023-04-12T07:33:52.245Z,2.30
2023-04-12T07:36:21.968Z,1.77
2023-04-12T07:38:52.030Z,2.15
2023-04-12T07:41:20.196Z,2.03
2023-04-12T07:43:47.759Z,2.05
2023-04-12T07:46:15.353Z,1.52
2023-04-12T07:48:44.687Z,2.10
2023-04-12T07:51:12.311Z,2.15
2023-04-12T07:53:41.686Z,2.03
2023-04-12T07:56:09.328Z,2.03
2023-04-12T07:58:36.964Z,1.80
2023-04-12T08:01:04.571Z,2.30
2023-04-12T08:03:32.231Z,2.85
2023-04-12T08:06:00.065Z,2.03
2023-04-12T08:08:27.838Z,2.10
2023-04-12T08:10:55.424Z,1.98
2023-04-12T08:13:23.076Z,2.40
2023-04-12T08:15:50.827Z,2.17
2023-04-12T08:18:18.319Z,1.75
2023-04-12T08:20:46.154Z,1.65
2023-04-12T08:23:13.966Z,2.10
2023-04-12T08:25:41.691Z,2.15
2023-04-12T08:28:09.293Z,1.65
2023-04-12T08:30:40.364Z,2.15
2023-04-12T08:33:07.880Z,2.00
2023-04-12T08:35:35.745Z,1.90
2023-04-12T08:38:09.387Z,2.65
2023-04-12T08:40:37.052Z,2.42
2023-04-12T08:43:08.315Z,2.33
2023-04-12T08:45:36.900Z,2.65
2023-04-12T08:48:06.610Z,2.45
2023-04-12T08:50:34.358Z,3.00
2023-04-12T08:53:02.023Z,2.30
2023-04-12T08:55:32.345Z,2.97
2023-04-12T08:58:00.289Z,3.22
2023-04-12T09:00:28.153Z,3.50
2023-04-12T09:02:56.152Z,3.22
2023-04-12T09:05:29.308Z,3.63
2023-04-12T09:07:57.537Z,3.47
2023-04-12T09:10:33.261Z,4.55
2023-04-12T09:13:01.595Z,2.65
2023-04-12T09:15:29.170Z,2.50
2023-04-12T09:18:10.299Z,2.65
2023-04-12T09:20:39.424Z,3.65
2023-04-12T09:23:23.143Z,2.65
2023-04-12T09:25:53.916Z,2.97
2023-04-12T09:28:23.195Z,3.63
2023-04-12T09:30:53.692Z,3.40
2023-04-12T09:33:23.339Z,3.67
2023-04-12T09:35:51.237Z,3.25
2023-04-12T09:38:22.119Z,3.42
2023-04-12T09:40:51.542Z,3.08
2023-04-12T09:43:19.096Z,4.20
2023-04-12T09:45:46.636Z,3.03
2023-04-12T09:48:21.939Z,3.80
2023-04-12T09:50:49.521Z,2.88
2023-04-12T09:53:19.056Z,3.75
2023-04-12T09:55:48.238Z,4.30
2023-04-12T09:58:17.892Z,3.72
2023-04-12T10:00:45.696Z,3.60
2023-04-12T10:03:13.484Z,3.58
2023-04-12T10:05:42.999Z,3.50
2023-04-12T10:08:12.695Z,2.78
2023-04-12T10:10:40.321Z,3.63
2023-04-12T10:13:08.164Z,4.13
2023-04-12T10:15:36.000Z,2.97
2023-04-12T10:18:04.001Z,2.90
2023-04-12T10:20:31.729Z,3.10
2023-04-12T10:23:01.962Z,3.03
2023-04-12T10:25:31.648Z,3.28
2023-04-12T10:28:14.174Z,3.78
2023-04-12T10:30:41.764Z,3.43
2023-04-12T10:33:17.390Z,3.38
2023-04-12T10:35:51.986Z,3.35
2023-04-12T10:38:19.997Z,7.22
2023-04-12T10:41:06.279Z,4.47
2023-04-12T10:43:34.481Z,3.42
2023-04-12T10:46:05.928Z,3.17
2023-04-12T10:48:37.213Z,4.25
2023-04-12T10:51:15.147Z,3.88
2023-04-12T10:53:42.684Z,3.03
2023-04-12T10:56:30.761Z,3.03
2023-04-12T10:59:01.200Z,4.93
2023-04-12T11:01:29.456Z,3.38
2023-04-12T11:04:15.890Z,2.60
2023-04-12T11:06:44.590Z,3.70
2023-04-12T11:09:18.831Z,3.65
2023-04-12T11:11:47.553Z,4.35
2023-04-12T11:14:18.847Z,3.42
2023-04-12T11:17:04.849Z,3.88
2023-04-12T11:19:38.110Z,3.75
2023-04-12T11:22:06.353Z,3.97
2023-04-12T11:24:33.973Z,3.60
2023-04-12T11:27:02.413Z,3.95
2023-04-12T11:29:30.152Z,3.92
2023-04-12T11:31:58.035Z,3.05
2023-04-12T11:34:26.145Z,3.97
2023-04-12T11:36:54.262Z,3.55
2023-04-12T11:39:22.037Z,3.80
2023-04-12T11:41:50.012Z,4.03
2023-04-12T11:44:22.477Z,4.57
2023-04-12T11:46:50.062Z,4.15
2023-04-12T11:49:18.370Z,4.53
2023-04-12T11:51:48.938Z,3.67
2023-04-12T11:54:17.148Z,3.10
2023-04-12T11:56:44.743Z,3.30
2023-04-12T11:59:12.668Z,3.42
2023-04-12T12:01:43.234Z,4.28
2023-04-12T12:04:11.040Z,3.97
2023-04-12T12:06:39.464Z,3.97
2023-04-12T12:09:07.155Z,3.60
2023-04-12T12:11:34.809Z,3.08
2023-04-12T12:14:02.356Z,4.10
2023-04-12T12:16:30.698Z,3.78
2023-04-12T12:18:58.599Z,2.92
2023-04-12T12:21:28.236Z,2.88
2023-04-12T12:23:59.231Z,4.68
2023-04-12T12:26:28.816Z,4.50
2023-04-12T12:28:57.649Z,3.65
2023-04-12T12:31:27.463Z,3.33
2023-04-12T12:33:58.938Z,3.75
2023-04-12T12:36:50.705Z,3.95
2023-04-12T12:39:18.554Z,4.32
2023-04-12T12:41:53.837Z,3.63
2023-04-12T12:44:21.549Z,3.13
2023-04-12T12:46:56.938Z,3.75
2023-04-12T12:49:30.987Z,3.70
2023-04-12T12:51:58.813Z,3.78
2023-04-12T12:56:58.366Z,4.05
2023-04-12T12:59:26.413Z,4.35
2023-04-12T13:01:57.323Z,4.07
2023-04-12T13:04:25.552Z,3.92
2023-04-12T13:06:53.230Z,3.65
2023-04-12T13:09:20.805Z,3.05
2023-04-12T13:11:48.328Z,2.92
2023-04-12T13:14:17.692Z,2.88
2023-04-12T13:16:46.795Z,3.70
2023-04-12T13:19:15.098Z,3.63
2023-04-12T13:21:42.643Z,2.85
2023-04-12T13:24:10.182Z,3.15
2023-04-12T13:26:37.737Z,3.10
2023-04-12T13:29:05.344Z,3.60
2023-04-12T13:31:32.929Z,2.80
2023-04-12T13:34:00.959Z,3.45
2023-04-12T13:36:28.601Z,2.03
2023-04-12T13:38:56.475Z,3.72
2023-04-12T13:41:24.396Z,4.13
2023-04-12T13:43:52.041Z,2.97
2023-04-12T13:46:19.660Z,3.47
2023-04-12T13:48:48.107Z,3.05
2023-04-12T13:51:15.656Z,2.40
2023-04-12T13:53:43.276Z,3.40
2023-04-12T13:56:12.494Z,2.85
2023-04-12T13:58:42.867Z,2.33
2023-04-12T14:01:11.135Z,2.78
2023-04-12T14:03:38.874Z,2.30
2023-04-12T14:06:06.801Z,2.50
2023-04-12T14:08:34.792Z,2.40
2023-04-12T14:11:03.623Z,2.65
2023-04-12T14:13:31.367Z,2.47
2023-04-12T14:16:01.251Z,1.83
2023-04-12T14:18:28.784Z,2.50
2023-04-12T14:20:58.359Z,2.47
2023-04-12T14:23:28.368Z,3.45
2023-04-12T14:25:55.897Z,3.30
2023-04-12T14:28:24.837Z,3.70
2023-04-12T14:30:52.737Z,2.75
2023-04-12T14:33:20.577Z,2.83
2023-04-12T14:35:49.327Z,2.28
2023-04-12T14:38:17.114Z,3.28
2023-04-12T14:40:44.833Z,2.72
2023-04-12T14:43:12.383Z,3.20
2023-04-12T14:45:39.964Z,2.80
2023-04-12T14:48:08.211Z,2.22
2023-04-12T14:50:35.807Z,2.15
2023-04-12T14:53:03.288Z,2.03
2023-04-12T14:55:31.197Z,2.70
2023-04-12T14:57:58.754Z,2.05
2023-04-12T15:00:26.340Z,2.63
2023-04-12T15:02:54.460Z,1.92
2023-04-12T15:05:24.777Z,2.33
2023-04-12T15:07:52.602Z,1.92
2023-04-12T15:10:21.605Z,2.40
2023-04-12T15:12:49.194Z,2.33
2023-04-12T15:15:17.065Z,2.30
2023-04-12T15:17:45.055Z,2.40
2023-04-12T15:20:13.923Z,1.67
2023-04-12T15:22:41.666Z,3.13
2023-04-12T15:25:09.510Z,2.38
2023-04-12T15:27:38.236Z,2.40
2023-04-12T15:30:10.498Z,2.15
2023-04-12T15:32:40.585Z,2.08
2023-04-12T15:35:25.126Z,3.05
2023-04-12T15:37:56.013Z,1.83
2023-04-12T15:40:24.650Z,2.38
2023-04-12T15:42:52.270Z,3.63
2023-04-12T15:45:19.773Z,2.92
2023-04-12T15:47:47.665Z,2.03
2023-04-12T15:50:15.450Z,2.33
2023-04-12T15:52:45.247Z,1.67
2023-04-12T15:55:13.205Z,2.63
2023-04-12T15:57:40.731Z,1.60
2023-04-12T16:00:27.984Z,2.25
2023-04-12T16:02:56.969Z,2.67
2023-04-12T16:05:30.873Z,2.60
2023-04-12T16:07:58.786Z,2.17
2023-04-12T16:10:26.737Z,2.70
2023-04-12T16:12:55.141Z,2.58
2023-04-12T16:15:23.094Z,2.47
2023-04-12T16:17:56.732Z,3.80
2023-04-12T16:20:24.360Z,6.22
2023-04-12T16:22:56.445Z,6.00
2023-04-12T16:25:25.174Z,4.25
2023-04-12T16:27:52.937Z,2.72
2023-04-12T16:30:20.779Z,2.35
2023-04-12T16:32:48.930Z,2.10
2023-04-12T16:35:16.814Z,2.75
2023-04-12T16:37:45.101Z,2.10
2023-04-12T16:40:15.600Z,3.00
2023-04-12T16:42:43.887Z,2.05
2023-04-12T16:45:12.779Z,2.75
2023-04-12T16:47:41.078Z,2.20
2023-04-12T16:50:13.819Z,2.15
2023-04-12T16:52:44.175Z,2.42
2023-04-12T16:55:12.350Z,2.03
2023-04-12T16:57:40.829Z,2.38
2023-04-12T17:00:19.881Z,2.75
2023-04-12T17:02:48.543Z,2.60
2023-04-12T17:05:18.532Z,2.53
2023-04-12T17:07:54.693Z,4.60
2023-04-12T17:10:22.980Z,2.40
2023-04-12T17:12:54.224Z,2.55
2023-04-12T17:15:22.640Z,2.20
2023-04-12T17:17:51.497Z,2.92
2023-04-12T17:20:28.382Z,3.70
2023-04-12T17:22:57.071Z,3.70
2023-04-12T17:25:30.071Z,3.28
2023-04-12T17:28:03.338Z,2.60
2023-04-12T17:30:30.998Z,2.38
2023-04-12T17:33:01.679Z,2.45
2023-04-12T17:35:29.609Z,2.58
2023-04-12T17:37:58.195Z,3.30
2023-04-12T17:40:25.750Z,2.42
2023-04-12T17:42:55.971Z,2.30
2023-04-12T17:45:24.708Z,2.60
2023-04-12T17:47:52.202Z,3.22
2023-04-12T17:50:22.573Z,2.15
2023-04-12T17:52:50.237Z,2.92
2023-04-12T17:55:20.710Z,2.20
2023-04-12T17:57:48.175Z,2.33
2023-04-12T18:00:16.349Z,3.33
2023-04-12T18:02:47.728Z,2.55
2023-04-12T18:05:16.254Z,2.80
2023-04-12T18:07:44.194Z,2.20
2023-04-12T18:10:13.909Z,1.90
2023-04-12T18:12:41.519Z,2.95
2023-04-12T18:15:09.517Z,2.45
2023-04-12T18:17:37.095Z,2.30
2023-04-12T18:20:09.438Z,2.53
2023-04-12T18:25:04.804Z,2.63
2023-04-12T18:27:32.816Z,2.83
2023-04-12T18:30:02.018Z,2.33
2023-04-12T18:32:29.913Z,2.05
2023-04-12T18:34:57.736Z,2.60
2023-04-12T18:37:25.237Z,2.33
2023-04-12T18:39:53.767Z,2.25
2023-04-12T18:42:21.552Z,3.22
2023-04-12T18:44:49.159Z,2.47
2023-04-12T18:47:16.786Z,2.70
2023-04-12T18:49:44.619Z,1.92
2023-04-12T18:52:12.130Z,2.75
2023-04-12T18:54:39.612Z,2.70
2023-04-12T18:57:08.561Z,2.58
2023-04-12T18:59:36.142Z,3.10
2023-04-12T19:02:04.025Z,2.00
2023-04-12T19:04:33.835Z,1.98
2023-04-12T19:07:01.372Z,2.67
2023-04-12T19:09:29.727Z,3.10
2023-04-12T19:11:57.673Z,2.47
2023-04-12T19:14:26.502Z,2.20
2023-04-12T19:16:54.684Z,1.92
2023-04-12T19:19:23.096Z,2.40
2023-04-12T19:21:50.541Z,1.90
2023-04-12T19:24:18.259Z,2.13
2023-04-12T19:26:49.900Z,1.60
2023-04-12T19:29:17.512Z,2.42
2023-04-12T19:31:47.872Z,1.90
2023-04-12T19:34:17.936Z,1.95
2023-04-12T19:36:46.018Z,3.20
2023-04-12T19:39:13.886Z,4.05
2023-04-12T19:41:42.427Z,1.90
2023-04-12T19:44:10.136Z,2.60
2023-04-12T19:46:39.527Z,2.47
2023-04-12T19:49:07.042Z,2.72
2023-04-12T19:51:35.230Z,1.98
2023-04-12T19:54:03.481Z,1.95
2023-04-12T19:56:32.109Z,3.53
2023-04-12T19:59:00.598Z,2.88
2023-04-12T20:01:28.375Z,2.85
2023-04-12T20:03:56.151Z,2.22
2023-04-12T20:06:24.253Z,2.13
2023-04-12T20:08:52.209Z,2.05
2023-04-12T20:11:19.937Z,2.58
2023-04-12T20:13:47.493Z,2.05
2023-04-12T20:16:15.158Z,2.03
2023-04-12T20:18:42.797Z,1.38
2023-04-12T20:21:10.868Z,2.35
2023-04-12T20:23:38.435Z,2.22
2023-04-12T20:26:06.218Z,2.38
2023-04-12T20:28:34.539Z,2.15
2023-04-12T20:31:02.140Z,2.00
2023-04-12T20:33:30.893Z,1.73
2023-04-12T20:35:58.401Z,1.58
2023-04-12T20:38:25.858Z,2.92
2023-04-12T20:40:53.458Z,1.67
2023-04-12T20:43:20.945Z,2.00
2023-04-12T20:45:49.397Z,2.47
2023-04-12T20:48:17.513Z,2.20
2023-04-12T20:50:45.577Z,2.65
2023-04-12T20:53:16.567Z,2.88
2023-04-12T20:55:45.247Z,2.13
2023-04-12T20:58:17.041Z,1.60
2023-04-12T21:00:44.857Z,2.55
2023-04-12T21:05:57.317Z,2.35
2023-04-12T21:08:24.903Z,2.33
2023-04-12T21:10:53.482Z,2.47
2023-04-12T21:13:25.227Z,2.75
2023-04-12T21:15:56.034Z,1.98
2023-04-12T21:18:24.438Z,2.00
2023-04-12T21:20:52.158Z,2.90
2023-04-12T21:23:19.868Z,2.33
2023-04-12T21:25:51.658Z,1.83
2023-04-12T21:28:19.149Z,1.67
2023-04-12T21:30:46.833Z,2.35
2023-04-12T21:33:14.350Z,2.17
2023-04-12T21:35:41.846Z,2.33
2023-04-12T21:38:09.401Z,2.10
2023-04-12T21:40:37.701Z,2.10
2023-04-12T21:43:05.232Z,3.22
2023-04-12T21:45:32.746Z,2.20
2023-04-12T21:48:01.016Z,2.00
2023-04-12T21:50:28.475Z,2.72
2023-04-12T21:52:56.092Z,2.22
2023-04-12T21:55:23.720Z,1.83
2023-04-12T21:57:51.248Z,2.10
2023-04-12T22:00:18.930Z,2.45
2023-04-12T22:02:46.896Z,2.90
2023-04-12T22:05:14.455Z,2.50
2023-04-12T22:07:42.081Z,2.08
2023-04-12T22:10:10.079Z,3.22
2023-04-12T22:12:38.059Z,1.98
2023-04-12T22:15:06.157Z,1.90
2023-04-12T22:17:34.066Z,2.20
2023-04-12T22:20:01.730Z,2.30
2023-04-12T22:22:30.781Z,3.05
2023-04-12T22:24:58.330Z,2.47
2023-04-12T22:27:27.183Z,3.05
2023-04-12T22:29:54.657Z,2.25
2023-04-12T22:32:22.459Z,1.92
2023-04-12T22:34:58.088Z,2.17
2023-04-12T22:37:35.939Z,2.40
2023-04-12T22:40:05.658Z,1.88
2023-04-12T22:42:33.328Z,1.80
2023-04-12T22:45:00.906Z,1.60
2023-04-12T22:47:28.717Z,1.73
2023-04-12T22:50:02.117Z,2.50
2023-04-12T22:52:32.417Z,2.13
2023-04-12T22:55:00.000Z,2.22
2023-04-12T22:57:27.987Z,2.38
2023-04-12T22:59:55.400Z,1.73
2023-04-12T23:02:22.984Z,1.95
2023-04-12T23:04:52.965Z,2.75
2023-04-12T23:07:20.443Z,2.10
2023-04-12T23:09:47.920Z,1.73
2023-04-12T23:12:15.557Z,1.95
2023-04-12T23:14:43.057Z,2.22
2023-04-12T23:17:10.917Z,2.55
2023-04-12T23:19:38.467Z,1.90
2023-04-12T23:22:06.871Z,2.28
2023-04-12T23:24:37.511Z,2.22
2023-04-12T23:27:05.227Z,2.70
2023-04-12T23:29:32.674Z,2.35
2023-04-12T23:32:00.169Z,2.28
2023-04-12T23:34:27.900Z,2.60
2023-04-12T23:36:55.673Z,2.78
2023-04-12T23:39:23.428Z,2.20
2023-04-12T23:41:51.691Z,3.10
2023-04-12T23:44:19.676Z,2.20
2023-04-12T23:46:47.170Z,2.88
2023-04-12T23:49:14.694Z,2.67
2023-04-12T23:51:42.282Z,2.83
2023-04-12T23:54:09.732Z,3.28
2023-04-12T23:56:37.455Z,2.85
2023-04-12T23:59:08.263Z,2.63
